createdAt,value
2022-12-08T07:38:01.200Z,2350.4
2022-12-08T07:39:01.115Z,2493.7
2022-12-08T07:40:01.720Z,2629.3
2022-12-08T07:41:01.125Z,2764.9
2022-12-08T07:42:01.109Z,2902.4
2022-12-08T07:43:01.174Z,3039.9
2022-12-08T07:44:01.109Z,3177.5
2022-12-08T07:45:01.918Z,3340.7
2022-12-08T07:46:01.159Z,3504.0
2022-12-08T07:47:01.114Z,3674.9
2022-12-08T07:48:02.140Z,3845.7
2022-12-08T07:49:01.114Z,4016.6
2022-12-08T07:51:01.117Z,4379.1
2022-12-08T07:52:01.111Z,4595.6
2022-12-08T07:53:01.120Z,4812.1
2022-12-08T07:54:01.130Z,5028.5
2022-12-08T07:55:01.348Z,5270.1
2022-12-08T07:56:01.118Z,5511.7
2022-12-08T07:57:02.211Z,5734.3
2022-12-08T07:58:01.115Z,5956.8
2022-12-08T07:59:01.110Z,6179.3
2022-12-08T08:01:01.294Z,6588.5
2022-12-08T08:02:22.607Z,6799.1
2022-12-08T08:03:02.185Z,7009.7
2022-12-08T08:04:01.117Z,7220.3
2022-12-08T08:06:01.118Z,7651.3
2022-12-08T08:07:01.108Z,7826.7
2022-12-08T08:08:01.204Z,8002.2
2022-12-08T08:09:01.118Z,8177.7
2022-12-08T08:10:13.336Z,8337.6
2022-12-08T08:11:03.799Z,8497.5
2022-12-08T08:12:29.399Z,8667.3
2022-12-08T08:13:01.112Z,8837.0
2022-12-08T08:14:01.117Z,9006.7
2022-12-08T08:15:01.712Z,9177.9
2022-12-08T08:17:01.290Z,9370.7
2022-12-08T08:18:01.104Z,9527.9
2022-12-08T08:19:01.130Z,9685.1
2022-12-08T08:20:01.106Z,9834.1
2022-12-08T08:21:43.576Z,9951.9
2022-12-08T08:22:01.137Z,10129.9
2022-12-08T08:23:01.173Z,10285.8
2022-12-08T08:24:01.107Z,10441.7
2022-12-08T08:25:01.137Z,10547.7
2022-12-08T08:26:01.958Z,10623.8
2022-12-08T08:27:01.105Z,10754.3
2022-12-08T08:28:01.102Z,10862.7
2022-12-08T08:29:01.109Z,10971.2
2022-12-08T08:30:01.217Z,11187.2
2022-12-08T08:31:02.135Z,11373.1
2022-12-08T08:32:01.105Z,11727.6
2022-12-08T08:33:01.101Z,12082.1
2022-12-08T08:34:01.107Z,12436.7
2022-12-08T08:35:01.204Z,12865.9
2022-12-08T08:36:02.153Z,13295.1
2022-12-08T08:37:01.171Z,13642.3
2022-12-08T08:38:01.108Z,13989.5
2022-12-08T08:39:01.104Z,14336.7
2022-12-08T08:40:01.169Z,15330.1
2022-12-08T08:41:01.818Z,16323.5
2022-12-08T08:42:01.128Z,18031.7
2022-12-08T08:43:01.105Z,19739.9
2022-12-08T08:44:01.109Z,21448.1
2022-12-08T08:45:01.139Z,22503.7
2022-12-08T08:46:01.778Z,23559.3
2022-12-08T08:47:01.109Z,25146.9
2022-12-08T08:48:01.105Z,26734.5
2022-12-08T08:49:01.112Z,28322.1
2022-12-08T08:50:01.137Z,29221.2
2022-12-08T08:51:07.230Z,30120.3
2022-12-08T08:52:01.401Z,31789.1
2022-12-08T08:53:01.271Z,33457.8
2022-12-08T08:54:01.109Z,35126.5
2022-12-08T08:55:01.121Z,35865.0
2022-12-08T08:56:03.625Z,36603.5
2022-12-08T08:57:01.121Z,36253.3
2022-12-08T08:58:01.135Z,35903.2
2022-12-08T08:59:01.126Z,35553.1
2022-12-08T09:00:01.192Z,36214.9
2022-12-08T09:01:07.338Z,36876.7
2022-12-08T09:02:01.500Z,36341.9
2022-12-08T09:03:01.122Z,35807.1
2022-12-08T09:04:01.170Z,35272.3
2022-12-08T09:05:01.380Z,34568.9
2022-12-08T09:06:07.941Z,33865.5
2022-12-08T09:07:01.111Z,32533.4
2022-12-08T09:08:01.192Z,31201.3
2022-12-08T09:09:01.120Z,29869.3
2022-12-08T09:10:01.988Z,29554.7
2022-12-08T09:11:01.339Z,29240.2
2022-12-08T09:13:01.242Z,30211.3
2022-12-08T09:14:01.135Z,31182.5
2022-12-08T09:15:01.109Z,32483.4
2022-12-08T09:16:01.138Z,33317.5
2022-12-08T09:17:02.044Z,33145.9
2022-12-08T09:18:01.100Z,33448.5
2022-12-08T09:19:01.175Z,33751.1
2022-12-08T09:20:01.398Z,34905.8
2022-12-08T09:21:01.113Z,36851.1
2022-12-08T09:22:01.763Z,38491.9
2022-12-08T09:23:01.683Z,40013.5
2022-12-08T09:24:01.117Z,41535.1
2022-12-08T09:25:01.179Z,43139.9
2022-12-08T09:26:01.122Z,44061.0
2022-12-08T09:27:01.753Z,45341.7
2022-12-08T09:28:01.118Z,45656.1
2022-12-08T09:29:01.114Z,45970.5
2022-12-08T09:30:01.439Z,45983.1
2022-12-08T09:31:01.150Z,45995.8
2022-12-08T09:32:01.883Z,46777.5
2022-12-08T09:33:01.120Z,47559.3
2022-12-08T09:34:01.185Z,48341.0
2022-12-08T09:35:01.210Z,48499.3
2022-12-08T09:36:01.139Z,48657.7
2022-12-08T09:37:01.965Z,50053.8
2022-12-08T09:38:01.121Z,51449.9
2022-12-08T09:39:02.260Z,52846.1
2022-12-08T09:40:01.174Z,53774.4
2022-12-08T09:41:01.128Z,54702.7
2022-12-08T09:42:16.869Z,55656.1
2022-12-08T09:43:01.107Z,56609.5
2022-12-08T09:44:01.115Z,57562.9
2022-12-08T09:45:01.166Z,58488.3
2022-12-08T09:46:01.260Z,59413.6
2022-12-08T09:47:02.249Z,60575.5
2022-12-08T09:49:01.101Z,61737.5
2022-12-08T09:50:01.134Z,62899.4
2022-12-08T09:51:01.105Z,63832.6
2022-12-08T09:52:01.118Z,64765.8
2022-12-08T09:56:01.682Z,65150.4
2022-12-08T09:57:01.108Z,65535.0
2022-12-08T10:00:01.405Z,65535.0
2022-12-08T10:05:01.221Z,65117.3
2022-12-08T10:06:01.104Z,64699.5
2022-12-08T10:15:01.555Z,64699.5
2022-12-08T10:20:01.700Z,64755.6
2022-12-08T10:21:01.141Z,64811.7
2022-12-08T10:22:01.147Z,63987.7
2022-12-08T10:23:01.127Z,63163.7
2022-12-08T10:24:01.116Z,62339.7
2022-12-08T10:25:01.319Z,61362.1
2022-12-08T10:26:01.116Z,60384.6
2022-12-08T10:27:01.148Z,59148.5
2022-12-08T10:28:01.125Z,57912.3
2022-12-08T10:29:01.112Z,56676.2
2022-12-08T10:30:01.473Z,54443.5
2022-12-08T10:31:01.162Z,52210.9
2022-12-08T10:32:01.248Z,49786.4
2022-12-08T10:33:01.926Z,47361.9
2022-12-08T10:34:01.120Z,44937.5
2022-12-08T10:35:01.332Z,43288.5
2022-12-08T10:36:01.114Z,41639.6
2022-12-08T10:37:01.318Z,40832.6
2022-12-08T10:38:01.870Z,40025.6
2022-12-08T10:39:01.117Z,39218.6
2022-12-08T10:40:01.433Z,38256.9
2022-12-08T10:41:01.118Z,37295.3
2022-12-08T10:42:01.178Z,37013.4
2022-12-08T10:43:01.700Z,36731.5
2022-12-08T10:44:01.153Z,36449.7
2022-12-08T10:45:01.334Z,37971.8
2022-12-08T10:46:01.122Z,39493.9
2022-12-08T10:47:01.196Z,41773.1
2022-12-08T10:48:01.678Z,44052.2
2022-12-08T10:49:01.119Z,46331.3
2022-12-08T10:50:01.453Z,48195.7
2022-12-08T10:51:01.119Z,50060.1
2022-12-08T10:52:01.146Z,51691.1
2022-12-08T10:53:01.773Z,53322.1
2022-12-08T10:54:01.121Z,54953.1
2022-12-08T10:55:01.322Z,56892.3
2022-12-08T10:56:01.121Z,58831.5
2022-12-08T10:57:01.150Z,60349.5
2022-12-08T10:58:01.138Z,61867.5
2022-12-08T10:59:01.130Z,63385.5
2022-12-08T11:00:04.097Z,64096.1
2022-12-08T11:01:01.276Z,64806.6
2022-12-08T11:03:02.190Z,64951.9
2022-12-08T11:04:01.402Z,65097.3
2022-12-08T11:05:01.324Z,65242.6
2022-12-08T11:06:05.554Z,65388.8
2022-12-08T11:07:01.114Z,65250.8
2022-12-08T11:08:02.431Z,64966.6
2022-12-08T11:09:01.163Z,64682.4
2022-12-08T11:10:01.473Z,63156.0
2022-12-08T11:11:01.117Z,61629.6
2022-12-08T11:12:01.110Z,60183.1
2022-12-08T11:13:02.416Z,58736.7
2022-12-08T11:14:01.107Z,57290.2
2022-12-08T11:15:01.403Z,55676.7
2022-12-08T11:16:01.253Z,54063.3
2022-12-08T11:17:01.258Z,52497.9
2022-12-08T11:18:01.723Z,50932.5
2022-12-08T11:19:01.115Z,49367.1
2022-12-08T11:20:01.475Z,48442.8
2022-12-08T11:21:01.116Z,47518.5
2022-12-08T11:22:01.118Z,47061.5
2022-12-08T11:23:01.640Z,46604.4
2022-12-08T11:24:01.153Z,46147.3
2022-12-08T11:25:01.414Z,46634.2
2022-12-08T11:26:01.107Z,47121.1
2022-12-08T11:27:01.112Z,48567.5
2022-12-08T11:28:01.764Z,50014.0
2022-12-08T11:29:01.138Z,51460.5
2022-12-08T11:30:01.692Z,53073.9
2022-12-08T11:31:01.201Z,54687.4
2022-12-08T11:32:01.220Z,56252.8
2022-12-08T11:33:05.971Z,57818.2
2022-12-08T11:34:01.117Z,59383.6
2022-12-08T11:35:01.356Z,60307.9
2022-12-08T11:36:01.180Z,61232.1
2022-12-08T11:37:01.268Z,61973.4
2022-12-08T11:38:24.444Z,62714.7
2022-12-08T11:39:01.253Z,63455.9
2022-12-08T11:40:01.645Z,64282.1
2022-12-08T11:41:01.230Z,65108.2
2022-12-08T11:45:01.469Z,64265.1
2022-12-08T11:46:01.492Z,63422.1
2022-12-08T11:47:01.185Z,61846.2
2022-12-08T11:48:02.372Z,60270.3
2022-12-08T11:49:07.195Z,58694.5
2022-12-08T11:50:01.873Z,56806.5
2022-12-08T11:51:01.245Z,54918.5
2022-12-08T11:52:01.123Z,54835.5
2022-12-08T11:53:02.132Z,54752.5
2022-12-08T11:54:01.342Z,54669.5
2022-12-08T11:55:01.527Z,54806.5
2022-12-08T11:56:01.177Z,54943.6
2022-12-08T11:58:01.985Z,53129.5
2022-12-08T11:59:01.429Z,51315.5
2022-12-08T12:00:04.316Z,49812.1
2022-12-08T12:01:01.105Z,49151.9
2022-12-08T12:02:01.225Z,47928.1
2022-12-08T12:03:01.223Z,47437.1
2022-12-08T12:04:01.303Z,46946.1
2022-12-08T12:05:01.312Z,47387.9
2022-12-08T12:25:01.878Z,36929.0
2022-12-08T12:27:00.826Z,42324.7
2022-12-08T12:28:00.856Z,45022.5
2022-12-08T12:29:00.828Z,46641.2
2022-12-08T12:31:00.861Z,49616.9
2022-12-08T12:32:00.823Z,49836.3
2022-12-08T12:33:05.819Z,50006.9
2022-12-08T12:34:00.824Z,50143.4
2022-12-08T12:35:02.058Z,49186.1
2022-12-08T12:36:00.827Z,48388.3
2022-12-08T12:37:00.826Z,47210.9
2022-12-08T12:38:00.847Z,46201.7
2022-12-08T12:39:00.828Z,45327.1
2022-12-08T12:40:01.050Z,45008.0
2022-12-08T12:41:00.847Z,44688.9
2022-12-08T12:42:00.833Z,43298.3
2022-12-08T12:43:01.127Z,41907.7
2022-12-08T12:44:00.831Z,40517.1
2022-12-08T12:46:00.889Z,37014.6
2022-12-08T12:47:00.827Z,35612.8
2022-12-08T12:48:00.887Z,34211.0
2022-12-08T12:49:00.834Z,32809.2
2022-12-08T12:50:04.371Z,32185.3
2022-12-08T12:51:00.832Z,31561.5
2022-12-08T12:52:00.833Z,31386.0
2022-12-08T12:53:00.878Z,31210.5
2022-12-08T12:54:00.832Z,31035.1
2022-12-08T12:55:01.042Z,30941.2
2022-12-08T12:56:00.836Z,30847.3
2022-12-08T12:57:01.150Z,30606.0
2022-12-08T12:58:00.875Z,30364.7
2022-12-08T12:59:00.835Z,30123.3
2022-12-08T13:01:00.929Z,29843.5
2022-12-08T13:02:01.152Z,29636.2
2022-12-08T13:03:00.988Z,29428.9
2022-12-08T13:04:00.828Z,29221.7
2022-12-08T13:05:31.967Z,28985.1
2022-12-08T13:06:12.888Z,28748.6
2022-12-08T13:07:00.830Z,28483.3
2022-12-08T13:08:00.924Z,28217.9
2022-12-08T13:09:00.833Z,27952.6
2022-12-08T13:10:00.842Z,27638.3
2022-12-08T13:11:06.317Z,27323.9
2022-12-08T13:12:01.026Z,27127.9
2022-12-08T13:13:00.890Z,26931.8
2022-12-08T13:14:00.842Z,26735.7
2022-12-08T13:16:07.676Z,26279.6
2022-12-08T13:17:00.879Z,26109.3
2022-12-08T13:18:01.148Z,25939.1
2022-12-08T13:19:00.831Z,25768.8
2022-12-08T13:20:01.127Z,25608.7
2022-12-08T13:21:01.049Z,25448.7
2022-12-08T13:22:00.844Z,25316.1
2022-12-08T13:23:01.159Z,25183.5
2022-12-08T13:24:00.833Z,25050.9
2022-12-08T13:26:01.305Z,24756.7
2022-12-08T13:27:00.837Z,24611.6
2022-12-08T13:28:00.873Z,24466.5
2022-12-08T13:29:01.137Z,24321.3
2022-12-08T13:30:02.226Z,24229.7
2022-12-08T13:31:01.064Z,24138.1
2022-12-08T13:32:01.931Z,24063.7
2022-12-08T13:33:18.632Z,23989.3
2022-12-08T13:34:01.269Z,23914.9
2022-12-08T13:35:01.591Z,23790.3
2022-12-08T13:36:01.051Z,23665.6
2022-12-08T13:37:00.836Z,23530.9
2022-12-08T13:38:00.868Z,23396.3
2022-12-08T13:39:00.839Z,23261.6
2022-12-08T13:41:01.044Z,23136.5
2022-12-08T13:42:00.836Z,23084.0
2022-12-08T13:43:01.138Z,23031.5
2022-12-08T14:05:18.485Z,14678.0
2022-12-08T14:07:00.607Z,14515.3
2022-12-08T14:08:00.647Z,14434.0
2022-12-08T14:09:06.847Z,14385.2
2022-12-08T14:10:00.777Z,14229.3
2022-12-08T14:11:00.591Z,14118.0
2022-12-08T14:12:00.597Z,13954.1
2022-12-08T14:13:00.606Z,13826.7
2022-12-08T14:14:00.592Z,13724.7
2022-12-08T14:15:03.979Z,13578.4
2022-12-08T14:16:00.631Z,13456.4
2022-12-08T14:17:00.603Z,13315.2
2022-12-08T14:18:00.591Z,13194.2
2022-12-08T14:19:00.594Z,13089.3
2022-12-08T14:20:00.862Z,12848.4
2022-12-08T14:21:20.187Z,12607.5
2022-12-08T14:22:00.583Z,12356.8
2022-12-08T14:23:00.591Z,12106.1
2022-12-08T14:24:00.592Z,11855.5
2022-12-08T14:25:00.810Z,11611.9
2022-12-08T14:26:00.593Z,11368.4
2022-12-08T14:27:00.591Z,11124.3
2022-12-08T14:28:00.857Z,10880.3
2022-12-08T14:29:00.623Z,10636.2
2022-12-08T14:30:00.819Z,10393.1
2022-12-08T14:31:00.619Z,10149.9
2022-12-08T14:32:00.599Z,9898.5
2022-12-08T14:33:00.618Z,9647.1
2022-12-08T14:34:00.717Z,9395.7
2022-12-08T14:35:00.864Z,9147.1
2022-12-08T14:36:00.590Z,8898.4
2022-12-08T14:37:00.686Z,8652.6
2022-12-08T14:38:00.711Z,8406.8
2022-12-08T14:39:00.654Z,8161.0
2022-12-08T14:40:00.842Z,7917.7
2022-12-08T14:41:00.599Z,7674.3
2022-12-08T14:42:00.671Z,7435.0
2022-12-08T14:43:00.594Z,7195.7
2022-12-08T14:44:00.601Z,6956.3
2022-12-08T14:45:00.824Z,6726.1
2022-12-08T14:46:00.650Z,6495.8
2022-12-08T14:47:05.287Z,6272.2
2022-12-08T14:48:05.610Z,6048.6
2022-12-08T14:49:00.630Z,5825.0
2022-12-08T14:50:00.848Z,5604.4
2022-12-08T14:51:00.614Z,5383.8
2022-12-08T14:52:00.664Z,5169.3
2022-12-08T14:53:00.673Z,4954.9
2022-12-08T14:54:00.742Z,4740.4
2022-12-08T14:55:00.770Z,4533.2
2022-12-08T14:56:00.593Z,4326.0
2022-12-08T14:57:00.664Z,4129.5
2022-12-08T14:58:00.635Z,3932.9
2022-12-08T14:59:00.599Z,3736.4
2022-12-08T15:00:03.105Z,3547.5
2022-12-08T15:01:00.601Z,3358.5
2022-12-08T15:02:00.637Z,3180.5
2022-12-08T15:03:00.600Z,3002.4
2022-12-08T15:04:00.620Z,2824.3
2022-12-08T15:05:00.881Z,2654.7
2022-12-08T15:06:00.661Z,2485.0
2022-12-08T15:07:00.602Z,2328.7
2022-12-08T15:08:00.667Z,2172.5
2022-12-08T15:09:00.630Z,2016.2
2022-12-08T15:11:00.602Z,1738.5
2022-12-08T15:12:00.606Z,1612.5
2022-12-08T15:13:00.681Z,1486.5
2022-12-08T15:14:00.612Z,1360.5
2022-12-08T15:15:01.467Z,1252.2
2022-12-08T15:16:00.791Z,1143.9
2022-12-08T15:17:00.598Z,1049.9
2022-12-08T15:18:00.611Z,955.9
2022-12-08T15:19:00.604Z,861.9
2022-12-08T15:20:01.391Z,784.2
2022-12-08T15:21:00.606Z,706.5
2022-12-08T15:22:00.609Z,643.0
2022-12-08T15:23:00.608Z,579.5
2022-12-08T15:24:00.619Z,516.1
2022-12-08T15:25:00.898Z,463.2
2022-12-08T15:26:00.629Z,410.3
2022-12-08T15:27:00.610Z,370.1
2022-12-08T15:28:00.614Z,329.9
2022-12-08T15:29:00.645Z,289.7
2022-12-08T15:31:00.757Z,226.3
2022-12-08T15:32:00.781Z,202.1
2022-12-08T15:33:00.614Z,178.0
2022-12-08T15:34:00.675Z,153.9
2022-12-08T15:35:00.888Z,135.3
2022-12-08T15:36:00.679Z,116.8
2022-12-08T15:37:00.605Z,103.1
2022-12-08T15:38:00.617Z,89.5
2022-12-08T15:39:00.628Z,75.8
2022-12-08T15:40:01.433Z,66.0
2022-12-08T15:41:00.631Z,56.2
2022-12-08T15:42:00.726Z,49.3
2022-12-08T15:43:00.607Z,42.5
2022-12-08T15:44:00.638Z,35.6
2022-12-08T15:45:01.414Z,30.9
2022-12-08T15:46:00.699Z,26.3
2022-12-08T15:47:00.679Z,23.1
2022-12-08T15:48:00.620Z,19.9
2022-12-08T15:49:00.611Z,16.7
2022-12-08T15:50:00.869Z,14.6
2022-12-08T15:51:00.615Z,12.5
2022-12-08T15:52:11.398Z,11.1
2022-12-08T15:53:00.612Z,9.6
2022-12-08T15:54:00.666Z,8.1
2022-12-08T15:55:00.887Z,7.2
